createdAt,value
2023-01-24T00:00:52.984Z,9.40
2023-01-24T00:03:20.086Z,9.40
2023-01-24T00:05:48.860Z,9.40
2023-01-24T00:08:20.265Z,9.40
2023-01-24T00:10:48.558Z,9.40
2023-01-24T00:13:16.583Z,9.40
2023-01-24T00:15:43.716Z,9.40
2023-01-24T00:18:10.851Z,9.50
2023-01-24T00:20:37.882Z,9.50
2023-01-24T00:23:05.000Z,9.50
2023-01-24T00:25:31.996Z,9.60
2023-01-24T00:27:59.063Z,9.60
2023-01-24T00:30:26.127Z,9.60
2023-01-24T00:32:53.163Z,9.60
2023-01-24T00:35:20.334Z,9.60
2023-01-24T00:37:47.539Z,9.60
2023-01-24T00:40:14.544Z,9.50
2023-01-24T00:42:41.477Z,9.50
2023-01-24T00:45:08.823Z,9.40
2023-01-24T00:47:35.878Z,9.40
2023-01-24T00:50:02.946Z,9.30
2023-01-24T00:52:30.248Z,9.30
2023-01-24T00:54:57.206Z,9.30
2023-01-24T00:57:25.451Z,9.30
2023-01-24T00:59:52.373Z,9.30
2023-01-24T01:02:19.956Z,9.30
2023-01-24T01:04:47.063Z,9.30
2023-01-24T01:07:14.037Z,9.30
2023-01-24T01:09:41.061Z,9.30
2023-01-24T01:12:08.049Z,9.40
2023-01-24T01:14:35.177Z,9.40
2023-01-24T01:17:02.190Z,9.40
2023-01-24T01:19:29.152Z,9.40
2023-01-24T01:21:56.161Z,9.40
2023-01-24T01:24:23.199Z,9.40
2023-01-24T01:26:50.292Z,9.40
2023-01-24T01:29:17.474Z,9.40
2023-01-24T01:31:44.480Z,9.40
2023-01-24T01:34:11.853Z,9.40
2023-01-24T01:36:38.847Z,9.40
2023-01-24T01:39:05.989Z,9.40
2023-01-24T01:41:33.196Z,9.40
2023-01-24T01:44:41.555Z,9.50
2023-01-24T01:47:26.138Z,9.50
2023-01-24T01:50:32.682Z,9.40
2023-01-24T01:52:59.957Z,9.50
2023-01-24T01:55:32.063Z,9.40
2023-01-24T01:58:00.035Z,9.50
2023-01-24T02:00:30.246Z,9.40
2023-01-24T02:03:23.577Z,9.40
2023-01-24T02:05:51.648Z,9.40
2023-01-24T02:08:23.194Z,9.40
2023-01-24T02:11:10.015Z,9.40
2023-01-24T02:13:40.682Z,9.40
2023-01-24T02:16:08.511Z,9.40
2023-01-24T02:18:41.337Z,9.50
2023-01-24T02:21:16.326Z,9.50
2023-01-24T02:23:52.556Z,9.40
2023-01-24T02:26:23.886Z,9.40
2023-01-24T02:28:53.398Z,9.40
2023-01-24T02:31:20.678Z,9.40
2023-01-24T02:33:47.734Z,9.30
2023-01-24T02:36:34.022Z,9.30
2023-01-24T02:39:10.212Z,9.30
2023-01-24T02:41:45.610Z,9.30
2023-01-24T02:44:18.207Z,9.30
2023-01-24T02:46:45.977Z,9.30
2023-01-24T02:49:13.776Z,9.40
2023-01-24T02:51:59.172Z,9.40
2023-01-24T02:54:26.170Z,9.40
2023-01-24T02:57:11.650Z,9.40
2023-01-24T02:59:38.701Z,9.40
2023-01-24T03:02:05.867Z,9.40
2023-01-24T03:04:32.963Z,9.40
2023-01-24T03:07:00.009Z,9.50
2023-01-24T03:09:39.948Z,9.50
2023-01-24T03:12:27.052Z,9.50
2023-01-24T03:15:12.557Z,9.50
2023-01-24T03:17:57.983Z,9.50
2023-01-24T03:20:43.297Z,9.40
2023-01-24T03:23:28.815Z,9.40
2023-01-24T03:26:15.877Z,9.40
2023-01-24T03:29:01.163Z,9.40
2023-01-24T03:31:47.123Z,9.40
2023-01-24T03:34:32.925Z,9.40
2023-01-24T03:37:01.819Z,9.40
2023-01-24T03:39:47.270Z,9.40
2023-01-24T03:42:14.320Z,9.40
2023-01-24T03:44:41.374Z,9.40
2023-01-24T03:47:08.403Z,9.40
2023-01-24T03:49:53.811Z,9.30
2023-01-24T03:52:30.081Z,9.30
2023-01-24T03:54:58.499Z,9.30
2023-01-24T03:57:27.965Z,9.20
2023-01-24T03:59:55.245Z,9.30
2023-01-24T04:02:22.817Z,9.30
2023-01-24T04:05:08.229Z,9.30
2023-01-24T04:07:35.207Z,9.20
2023-01-24T04:10:02.337Z,9.30
2023-01-24T04:12:29.371Z,9.30
2023-01-24T04:14:56.353Z,9.30
2023-01-24T04:17:23.461Z,9.30
2023-01-24T04:19:50.404Z,9.30
2023-01-24T04:22:18.302Z,9.30
2023-01-24T04:24:45.923Z,9.30
2023-01-24T04:27:13.375Z,9.30
2023-01-24T04:29:40.436Z,9.30
2023-01-24T04:32:09.371Z,9.40
2023-01-24T04:34:36.542Z,9.40
2023-01-24T04:37:03.713Z,9.40
2023-01-24T04:39:30.752Z,9.40
2023-01-24T04:41:57.754Z,9.40
2023-01-24T04:44:24.727Z,9.40
2023-01-24T04:46:51.904Z,9.40
2023-01-24T04:49:19.058Z,9.40
2023-01-24T04:51:48.766Z,9.40
2023-01-24T04:54:15.830Z,9.50
2023-01-24T04:56:42.863Z,9.50
2023-01-24T04:59:12.516Z,9.50
2023-01-24T05:01:39.689Z,9.50
2023-01-24T05:04:07.250Z,9.50
2023-01-24T05:06:35.405Z,9.50
2023-01-24T05:09:02.547Z,9.50
2023-01-24T05:11:29.618Z,9.40
2023-01-24T05:13:56.560Z,9.40
2023-01-24T05:16:23.465Z,9.40
2023-01-24T05:18:50.480Z,9.40
2023-01-24T05:21:19.624Z,9.40
2023-01-24T05:23:54.315Z,9.40
2023-01-24T05:26:23.404Z,9.40
2023-01-24T05:28:51.212Z,9.30
2023-01-24T05:31:18.608Z,9.30
2023-01-24T05:33:45.595Z,9.20
2023-01-24T05:36:21.096Z,9.30
2023-01-24T05:38:48.745Z,9.30
2023-01-24T05:41:18.437Z,9.30
2023-01-24T05:43:46.885Z,9.20
2023-01-24T05:46:16.731Z,9.30
2023-01-24T05:48:44.815Z,9.30
2023-01-24T05:51:14.162Z,9.30
2023-01-24T05:53:43.249Z,9.40
2023-01-24T05:56:15.516Z,9.30
2023-01-24T05:58:43.639Z,9.40
2023-01-24T06:01:19.167Z,9.40
2023-01-24T06:03:48.985Z,9.30
2023-01-24T06:06:18.132Z,9.30
2023-01-24T06:08:45.518Z,9.30
2023-01-24T06:11:18.032Z,9.30
2023-01-24T06:13:45.917Z,9.20
2023-01-24T06:16:19.844Z,9.20
2023-01-24T06:18:47.836Z,9.20
2023-01-24T06:21:38.276Z,9.20
2023-01-24T06:24:06.337Z,9.20
2023-01-24T06:26:33.777Z,9.20
2023-01-24T06:29:00.957Z,9.10
2023-01-24T06:31:38.797Z,9.10
2023-01-24T06:34:47.408Z,9.10
2023-01-24T06:37:36.291Z,9.00
2023-01-24T06:40:09.495Z,9.10
2023-01-24T06:42:36.837Z,9.00
2023-01-24T06:45:04.426Z,9.00
2023-01-24T06:47:31.393Z,9.00
2023-01-24T06:49:58.448Z,9.00
2023-01-24T06:52:25.538Z,8.90
2023-01-24T06:54:52.455Z,9.00
2023-01-24T06:57:19.375Z,9.00
2023-01-24T06:59:46.294Z,9.00
2023-01-24T07:02:13.593Z,9.00
2023-01-24T07:04:40.589Z,9.00
2023-01-24T07:07:07.689Z,9.10
2023-01-24T07:09:34.648Z,9.10
2023-01-24T07:12:01.779Z,9.10
2023-01-24T07:14:28.707Z,9.10
2023-01-24T07:16:56.804Z,9.20
2023-01-24T07:19:27.503Z,9.20
2023-01-24T07:21:57.765Z,9.20
2023-01-24T07:24:30.490Z,9.20
2023-01-24T07:26:58.278Z,9.20
2023-01-24T07:29:25.340Z,9.30
2023-01-24T07:31:54.169Z,9.30
2023-01-24T07:34:21.449Z,9.30
2023-01-24T07:36:49.155Z,9.30
2023-01-24T07:39:16.710Z,9.30
2023-01-24T07:41:45.172Z,9.30
2023-01-24T07:44:12.616Z,9.40
2023-01-24T07:46:39.626Z,9.40
2023-01-24T07:49:06.607Z,9.40
2023-01-24T07:51:33.659Z,9.40
2023-01-24T07:54:00.569Z,9.40
2023-01-24T07:56:27.530Z,9.40
2023-01-24T07:58:54.797Z,9.40
2023-01-24T08:01:23.695Z,9.40
2023-01-24T08:03:51.110Z,9.40
2023-01-24T08:06:18.802Z,9.40
2023-01-24T08:08:46.014Z,9.40
2023-01-24T08:11:16.952Z,9.40
2023-01-24T08:13:47.255Z,9.40
2023-01-24T08:16:15.112Z,9.40
2023-01-24T08:18:42.446Z,9.40
2023-01-24T08:21:09.570Z,9.40
2023-01-24T08:23:36.974Z,9.40
2023-01-24T08:26:04.407Z,9.40
2023-01-24T08:28:32.382Z,9.40
2023-01-24T08:30:59.939Z,9.40
2023-01-24T08:33:27.185Z,9.40
2023-01-24T08:35:54.096Z,9.40
2023-01-24T08:38:21.258Z,9.40
2023-01-24T08:40:50.177Z,9.40
2023-01-24T08:43:18.490Z,9.40
2023-01-24T08:45:45.929Z,9.40
2023-01-24T08:48:13.055Z,9.50
2023-01-24T08:50:40.078Z,9.60
2023-01-24T08:53:06.987Z,9.60
2023-01-24T08:55:34.030Z,9.60
2023-01-24T08:58:02.811Z,9.60
2023-01-24T09:00:30.195Z,9.70
2023-01-24T09:03:01.738Z,9.70
2023-01-24T09:05:30.436Z,9.70
2023-01-24T09:07:58.376Z,9.70
2023-01-24T09:10:25.385Z,9.80
2023-01-24T09:12:52.380Z,9.80
2023-01-24T09:15:19.360Z,9.80
2023-01-24T09:17:46.602Z,9.80
2023-01-24T09:20:13.653Z,9.80
2023-01-24T09:22:41.225Z,9.90
2023-01-24T09:25:09.312Z,9.90
2023-01-24T09:27:37.123Z,9.90
2023-01-24T09:30:08.234Z,10.00
2023-01-24T09:32:36.339Z,10.00
2023-01-24T09:35:03.867Z,10.00
2023-01-24T09:37:30.809Z,10.00
2023-01-24T09:40:00.923Z,10.00
2023-01-24T09:42:27.905Z,10.10
2023-01-24T09:45:18.284Z,10.10
2023-01-24T09:47:55.865Z,10.10
2023-01-24T09:50:39.323Z,10.10
2023-01-24T09:53:06.381Z,10.20
2023-01-24T09:55:38.248Z,10.20
2023-01-24T09:58:17.995Z,10.20
2023-01-24T10:00:45.831Z,10.20
2023-01-24T10:03:21.131Z,10.20
2023-01-24T10:06:07.502Z,10.20
2023-01-24T10:08:46.614Z,10.30
2023-01-24T10:12:12.533Z,10.30
2023-01-24T10:14:51.388Z,10.30
2023-01-24T10:17:21.476Z,10.40
2023-01-24T10:20:15.767Z,10.50
2023-01-24T10:23:10.692Z,10.60
2023-01-24T10:26:15.626Z,10.70
2023-01-24T10:28:48.087Z,10.90
2023-01-24T10:31:19.196Z,11.10
2023-01-24T10:33:48.818Z,11.30
2023-01-24T10:36:47.330Z,11.50
2023-01-24T10:39:14.466Z,11.70
2023-01-24T10:41:41.848Z,11.80
2023-01-24T10:44:30.223Z,12.00
2023-01-24T10:47:13.301Z,12.10
2023-01-24T10:49:44.480Z,12.20
2023-01-24T10:52:23.062Z,12.10
2023-01-24T10:54:54.996Z,12.10
2023-01-24T10:57:30.842Z,12.20
2023-01-24T11:00:03.176Z,12.20
2023-01-24T11:02:35.807Z,12.30
2023-01-24T11:05:06.527Z,12.30
2023-01-24T11:07:42.037Z,12.30
2023-01-24T11:10:23.387Z,12.30
2023-01-24T11:12:56.273Z,12.40
2023-01-24T11:15:31.327Z,12.40
2023-01-24T11:18:18.304Z,12.50
2023-01-24T11:20:45.916Z,12.50
2023-01-24T11:23:28.762Z,12.50
2023-01-24T11:25:57.811Z,12.50
2023-01-24T11:28:31.268Z,12.50
2023-01-24T11:31:05.702Z,12.50
2023-01-24T11:33:58.455Z,12.60
2023-01-24T11:36:54.110Z,12.70
2023-01-24T11:39:35.997Z,12.80
2023-01-24T11:42:31.392Z,13.00
2023-01-24T11:45:35.801Z,13.10
2023-01-24T11:48:17.874Z,13.30
2023-01-24T11:51:14.478Z,13.50
2023-01-24T11:53:47.789Z,13.50
2023-01-24T11:56:40.902Z,13.50
2023-01-24T11:59:39.372Z,13.70
2023-01-24T12:02:31.450Z,13.80
2023-01-24T12:05:17.368Z,13.80
2023-01-24T12:08:08.284Z,13.90
2023-01-24T12:11:03.726Z,14.30
2023-01-24T12:14:04.264Z,14.60
2023-01-24T12:16:49.826Z,15.00
2023-01-24T12:19:34.314Z,15.60
2023-01-24T12:22:01.591Z,16.20
2023-01-24T12:24:33.110Z,16.70
2023-01-24T12:27:08.344Z,17.30
2023-01-24T12:30:03.136Z,17.20
2023-01-24T12:32:38.152Z,17.10
2023-01-24T12:35:34.749Z,17.30
2023-01-24T12:38:09.054Z,18.40
2023-01-24T12:40:36.408Z,19.00
2023-01-24T12:43:25.736Z,18.80
2023-01-24T12:46:01.811Z,18.10
2023-01-24T12:48:31.901Z,18.60
2023-01-24T12:51:05.191Z,18.30
2023-01-24T12:54:02.083Z,18.60
2023-01-24T12:56:51.549Z,18.90
2023-01-24T12:59:27.055Z,19.00
2023-01-24T13:02:23.417Z,20.90
2023-01-24T13:05:18.419Z,22.10
2023-01-24T13:07:53.010Z,22.40
2023-01-24T13:10:43.620Z,22.40
2023-01-24T13:13:21.356Z,21.60
2023-01-24T13:16:04.882Z,22.50
2023-01-24T13:19:26.082Z,22.90
2023-01-24T13:22:30.193Z,23.00
2023-01-24T13:25:06.056Z,22.00
2023-01-24T13:28:01.026Z,22.20
2023-01-24T13:31:05.638Z,21.60
2023-01-24T13:33:50.713Z,21.60
2023-01-24T13:36:22.608Z,22.00
2023-01-24T13:38:50.662Z,20.90
2023-01-24T13:41:39.312Z,20.60
2023-01-24T13:44:28.862Z,20.70
2023-01-24T13:47:22.512Z,21.40
2023-01-24T13:49:55.742Z,21.60
2023-01-24T13:52:35.113Z,20.60
2023-01-24T13:55:06.213Z,19.80
2023-01-24T13:57:35.445Z,19.30
2023-01-24T14:00:14.491Z,19.70
2023-01-24T14:02:49.346Z,21.10
2023-01-24T14:05:31.982Z,22.70
2023-01-24T14:08:15.272Z,23.70
2023-01-24T14:11:12.879Z,24.60
2023-01-24T14:13:48.941Z,25.40
2023-01-24T14:16:25.195Z,26.60
2023-01-24T14:18:59.022Z,26.50
2023-01-24T14:21:31.231Z,26.00
2023-01-24T14:24:07.756Z,26.30
2023-01-24T14:26:36.231Z,26.90
2023-01-24T14:29:05.214Z,27.10
2023-01-24T14:31:41.002Z,27.60
2023-01-24T14:34:39.239Z,27.40
2023-01-24T14:37:13.933Z,25.80
2023-01-24T14:39:40.918Z,22.10
2023-01-24T14:42:14.214Z,22.30
2023-01-24T14:44:56.565Z,22.90
2023-01-24T14:47:31.259Z,23.40
2023-01-24T14:50:03.452Z,22.90
2023-01-24T14:52:33.942Z,22.70
2023-01-24T14:55:13.389Z,22.20
2023-01-24T14:57:40.273Z,21.30
2023-01-24T15:00:11.895Z,21.60
2023-01-24T15:02:59.645Z,21.80
2023-01-24T15:05:34.169Z,22.00
2023-01-24T15:08:03.509Z,21.60
2023-01-24T15:10:37.846Z,20.70
2023-01-24T15:13:09.724Z,19.30
2023-01-24T15:15:39.961Z,18.10
2023-01-24T15:18:25.109Z,17.60
2023-01-24T15:20:52.195Z,17.40
2023-01-24T15:23:24.681Z,17.40
2023-01-24T15:25:52.233Z,17.30
2023-01-24T15:28:30.401Z,17.00
2023-01-24T15:31:06.160Z,16.80
2023-01-24T15:33:44.053Z,16.70
2023-01-24T15:36:27.779Z,16.40
2023-01-24T15:38:59.587Z,16.40
2023-01-24T15:41:56.240Z,16.30
2023-01-24T15:44:23.515Z,16.20
2023-01-24T15:47:17.317Z,16.10
2023-01-24T15:50:22.866Z,15.90
2023-01-24T15:53:13.793Z,15.70
2023-01-24T15:55:41.338Z,15.50
2023-01-24T15:58:10.809Z,15.30
2023-01-24T16:00:38.574Z,15.20
2023-01-24T16:03:05.990Z,15.10
2023-01-24T16:05:33.602Z,15.10
2023-01-24T16:08:02.020Z,15.10
2023-01-24T16:10:29.166Z,15.00
2023-01-24T16:12:56.252Z,15.00
2023-01-24T16:15:23.361Z,15.00
2023-01-24T16:17:50.392Z,14.90
2023-01-24T16:20:28.006Z,14.80
2023-01-24T16:22:55.574Z,14.60
2023-01-24T16:25:23.793Z,14.60
2023-01-24T16:27:52.363Z,14.60
2023-01-24T16:30:22.913Z,14.50
2023-01-24T16:32:50.902Z,14.40
2023-01-24T16:35:18.650Z,14.30
2023-01-24T16:37:46.162Z,14.30
2023-01-24T16:40:21.449Z,14.20
2023-01-24T16:42:49.663Z,14.10
2023-01-24T16:45:20.173Z,14.10
2023-01-24T16:47:47.829Z,14.00
2023-01-24T16:50:17.382Z,14.00
2023-01-24T16:52:47.855Z,14.00
2023-01-24T16:55:15.073Z,13.90
2023-01-24T16:57:42.699Z,13.90
2023-01-24T17:00:13.735Z,13.90
2023-01-24T17:02:45.603Z,13.80
2023-01-24T17:05:13.410Z,13.80
2023-01-24T17:07:40.475Z,13.70
2023-01-24T17:10:08.258Z,13.70
2023-01-24T17:12:35.695Z,13.70
2023-01-24T17:15:02.883Z,13.70
2023-01-24T17:17:29.959Z,13.60
2023-01-24T17:19:57.173Z,13.60
2023-01-24T17:22:24.155Z,13.50
2023-01-24T17:24:53.508Z,13.50
2023-01-24T17:27:20.650Z,13.40
2023-01-24T17:29:47.567Z,13.40
2023-01-24T17:32:14.792Z,13.40
2023-01-24T17:34:41.889Z,13.30
2023-01-24T17:37:09.030Z,13.10
2023-01-24T17:39:36.030Z,13.10
2023-01-24T17:42:03.009Z,13.10
2023-01-24T17:44:30.235Z,13.10
2023-01-24T17:46:58.248Z,13.00
2023-01-24T17:49:25.310Z,13.00
2023-01-24T17:51:52.493Z,13.00
2023-01-24T17:54:20.921Z,12.90
2023-01-24T17:56:47.969Z,12.80
2023-01-24T17:59:15.074Z,12.80
2023-01-24T18:01:42.138Z,12.70
2023-01-24T18:04:09.312Z,12.70
2023-01-24T18:06:37.610Z,12.70
2023-01-24T18:09:05.019Z,12.60
2023-01-24T18:11:32.111Z,12.50
2023-01-24T18:13:59.047Z,12.50
2023-01-24T18:16:28.930Z,12.40
2023-01-24T18:18:56.296Z,12.30
2023-01-24T18:21:25.747Z,12.20
2023-01-24T18:23:53.633Z,12.00
2023-01-24T18:26:21.089Z,11.90
2023-01-24T18:28:48.253Z,11.90
2023-01-24T18:31:15.878Z,11.90
2023-01-24T18:33:42.896Z,11.80
2023-01-24T18:36:11.167Z,11.80
2023-01-24T18:38:38.877Z,11.70
2023-01-24T18:41:05.852Z,11.60
2023-01-24T18:43:32.944Z,11.70
2023-01-24T18:46:08.693Z,11.70
2023-01-24T18:48:36.891Z,11.70
2023-01-24T18:51:07.673Z,11.70
2023-01-24T18:53:34.906Z,11.60
2023-01-24T18:56:04.060Z,11.60
2023-01-24T18:58:32.589Z,11.50
2023-01-24T19:01:00.003Z,11.50
2023-01-24T19:03:27.228Z,11.50
2023-01-24T19:05:54.142Z,11.50
2023-01-24T19:08:21.849Z,11.40
2023-01-24T19:10:49.724Z,11.40
2023-01-24T19:13:16.585Z,11.30
2023-01-24T19:15:43.466Z,11.30
2023-01-24T19:18:10.787Z,11.20
2023-01-24T19:20:37.726Z,11.10
2023-01-24T19:23:04.671Z,11.10
2023-01-24T19:25:31.823Z,11.00
2023-01-24T19:27:58.730Z,11.00
2023-01-24T19:30:26.773Z,10.90
2023-01-24T19:32:53.769Z,10.90
2023-01-24T19:35:20.776Z,10.90
2023-01-24T19:37:51.951Z,10.90
2023-01-24T19:40:19.467Z,10.90
2023-01-24T19:42:48.069Z,10.90
2023-01-24T19:45:16.509Z,10.90
2023-01-24T19:47:46.143Z,10.80
2023-01-24T19:50:13.694Z,10.80
2023-01-24T19:52:40.632Z,10.80
2023-01-24T19:55:08.328Z,10.80
2023-01-24T19:57:35.575Z,11.00
2023-01-24T20:00:02.554Z,11.20
2023-01-24T20:02:29.528Z,11.30
2023-01-24T20:04:56.519Z,11.40
2023-01-24T20:07:23.557Z,11.50
2023-01-24T20:09:51.220Z,11.60
2023-01-24T20:12:18.169Z,11.60
2023-01-24T20:14:45.088Z,11.60
2023-01-24T20:17:12.019Z,11.60
2023-01-24T20:19:41.160Z,11.60
2023-01-24T20:22:11.591Z,11.50
2023-01-24T20:24:38.753Z,11.50
2023-01-24T20:27:05.840Z,11.40
2023-01-24T20:29:32.968Z,11.40
2023-01-24T20:32:07.144Z,11.40
2023-01-24T20:34:45.922Z,11.30
2023-01-24T20:37:14.744Z,11.30
2023-01-24T20:39:44.128Z,11.30
2023-01-24T20:42:14.372Z,11.30
2023-01-24T20:44:41.404Z,11.20
2023-01-24T20:47:09.412Z,11.20
2023-01-24T20:49:36.403Z,11.20
2023-01-24T20:52:03.412Z,11.10
2023-01-24T20:54:30.317Z,10.90
2023-01-24T20:57:00.501Z,10.90
2023-01-24T20:59:28.655Z,10.80
2023-01-24T21:01:55.857Z,10.70
2023-01-24T21:04:23.124Z,10.60
2023-01-24T21:06:50.432Z,10.60
2023-01-24T21:09:18.447Z,10.50
2023-01-24T21:11:47.693Z,10.50
2023-01-24T21:14:16.974Z,10.40
2023-01-24T21:16:44.249Z,10.40
2023-01-24T21:19:18.491Z,10.30
2023-01-24T21:21:50.210Z,10.30
2023-01-24T21:24:34.154Z,10.40
2023-01-24T21:27:02.361Z,10.30
2023-01-24T21:29:29.365Z,10.40
2023-01-24T21:31:56.624Z,10.40
2023-01-24T21:34:23.840Z,10.40
2023-01-24T21:36:50.785Z,10.40
2023-01-24T21:39:17.791Z,10.40
2023-01-24T21:41:56.989Z,10.50
2023-01-24T21:44:26.460Z,10.40
2023-01-24T21:46:53.935Z,10.40
2023-01-24T21:49:23.529Z,10.40
2023-01-24T21:51:57.336Z,10.40
2023-01-24T21:54:31.633Z,10.40
2023-01-24T21:57:31.885Z,10.40
2023-01-24T22:00:02.056Z,10.40
2023-01-24T22:02:31.488Z,10.30
2023-01-24T22:04:59.575Z,10.30
2023-01-24T22:07:29.631Z,10.30
2023-01-24T22:09:58.430Z,10.30
2023-01-24T22:12:26.307Z,10.20
2023-01-24T22:14:57.877Z,10.20
2023-01-24T22:17:25.761Z,10.10
2023-01-24T22:19:55.529Z,10.10
2023-01-24T22:22:44.620Z,10.00
2023-01-24T22:25:27.131Z,10.00
2023-01-24T22:27:54.344Z,9.90
2023-01-24T22:30:26.304Z,9.90
2023-01-24T22:32:56.247Z,9.90
2023-01-24T22:35:26.812Z,9.90
2023-01-24T22:37:59.186Z,9.90
2023-01-24T22:40:27.254Z,9.90
2023-01-24T22:42:57.348Z,9.80
2023-01-24T22:45:29.706Z,9.80
2023-01-24T22:47:57.296Z,9.80
2023-01-24T22:50:24.626Z,9.80
2023-01-24T22:52:52.071Z,9.70
2023-01-24T22:55:19.049Z,9.70
2023-01-24T22:57:46.045Z,9.70
2023-01-24T23:00:13.742Z,9.60
2023-01-24T23:02:40.745Z,9.50
2023-01-24T23:05:08.387Z,9.50
2023-01-24T23:07:35.758Z,9.50
2023-01-24T23:10:02.770Z,9.50
2023-01-24T23:12:48.208Z,9.40
2023-01-24T23:15:34.054Z,9.40
2023-01-24T23:18:03.833Z,9.30
2023-01-24T23:20:49.398Z,9.30
2023-01-24T23:23:16.342Z,9.30
2023-01-24T23:25:45.172Z,9.30
2023-01-24T23:28:12.066Z,9.30
2023-01-24T23:30:54.303Z,9.30
2023-01-24T23:33:32.144Z,9.40
2023-01-24T23:36:00.969Z,9.30
2023-01-24T23:38:29.525Z,9.30
2023-01-24T23:40:56.469Z,9.30
2023-01-24T23:43:23.484Z,9.30
2023-01-24T23:45:50.556Z,9.30
2023-01-24T23:48:17.674Z,9.30
2023-01-24T23:50:44.642Z,9.40
2023-01-24T23:53:11.588Z,9.40
2023-01-24T23:55:38.588Z,9.30
2023-01-24T23:58:05.498Z,9.40
